Algoma Strongfield — CFJ8305 — position and weather

sailwx.info

Track history (hours):
 
Tides and Currents Weather Stations Pressure Air Temp Water Temp Dewpoint Dewpoint Depression Visibility Wind Speed Wind Dir Waves Ship Positions

Algoma Strongfield

Last reported at 2017-Dec-22 21:01 UTC. Time now 2018-Jan-24 09:26 UTC.
Position N 45°30' W 073°31'.
Warning: this ship's position is 32 days out of date.

Length 226 m; draft 8.1 m.

Type: Ship. MMSI: 316014060.

Date/timePositionNaut miles runAvg speedWind from/ knotsBaromVisibWave heightAir tempDewpointWater temp
2017-Dec-22 21:01N 45°30' W 073°31'0 3.3
2017-Dec-22 21:00N 45°30' W 073°31'0 0.6
2017-Dec-22 20:17N 45°30' W 073°31'0 0.7
2017-Dec-22 20:00N 45°29' W 073°31'0 0.6
2017-Dec-22 19:30N 45°29' W 073°31'1 3.0
2017-Dec-22 19:01N 45°28' W 073°30'3 5.7
2017-Dec-22 18:30N 45°25' W 073°31'2 4.2
2017-Dec-22 18:00N 45°24' W 073°34'0 0.2
2017-Dec-22 17:30N 45°24' W 073°34'0 0.5
2017-Dec-22 17:00N 45°24' W 073°34'0 0.3
2017-Dec-22 16:30N 45°24' W 073°35'0 0.1
2017-Dec-22 16:00N 45°24' W 073°35'0 0.0
2017-Dec-22 15:31N 45°24' W 073°35'0 0.9
2017-Dec-22 15:00N 45°24' W 073°35'2 3.8
2017-Dec-22 14:30N 45°24' W 073°38'2 4.7
2017-Dec-22 14:00N 45°25' W 073°41'3 5.5
2017-Dec-22 13:30N 45°24' W 073°45'5 9.8
2017-Dec-22 13:00N 45°22' W 073°51'3 6.5
2017-Dec-22 12:30N 45°20' W 073°55'0 0.0
2017-Dec-22 12:00N 45°20' W 073°55'0 0.0
2017-Dec-22 11:30N 45°20' W 073°55'0 0.0
2017-Dec-22 11:00N 45°20' W 073°55'0 0.0
2017-Dec-22 10:30N 45°20' W 073°55'0 0.0
2017-Dec-22 10:00N 45°20' W 073°55'0 0.1
2017-Dec-22 09:30N 45°20' W 073°55'0 0.1
2017-Dec-22 09:00N 45°20' W 073°55'0 0.7
2017-Dec-22 08:30N 45°20' W 073°55'1 1.7
2017-Dec-22 08:01N 45°19' W 073°55'0 0.6
2017-Dec-22 07:30N 45°19' W 073°55'1 1.1
2017-Dec-22 07:00N 45°18' W 073°56'0 0.5
2017-Dec-22 06:30N 45°18' W 073°56'2 4.5
2017-Dec-22 06:00N 45°16' W 073°57'5 9.6
2017-Dec-22 05:29N 45°13' W 074°03'510.2
2017-Dec-22 05:00N 45°14' W 074°10'  
2017-Dec-19 06:00N 45°18' W 083°12'8 7.9 210 / 25 3.0
2017-Dec-19 04:56N 45°23' W 083°21'713.8
2017-Dec-19 04:25N 45°28' W 083°29'613.8
2017-Dec-19 04:00N 45°33' W 083°33'713.8
2017-Dec-19 03:30N 45°39' W 083°38'  
Track history (hours):
 
Tides and Currents Weather Stations Pressure Air Temp Water Temp Dewpoint Dewpoint Depression Visibility Wind Speed Wind Dir Waves Ship Positions

Algoma Strongfield

Last reported at 2017-Dec-22 21:01 UTC. Time now 2018-Jan-24 09:26 UTC.
Position N 45°30' W 073°31'.
Warning: this ship's position is 32 days out of date.

Length 226 m; draft 8.1 m.

Type: Ship. MMSI: 316014060.

Date/timePositionNaut miles runAvg speedWind from/ knotsBaromVisibWave heightAir tempDewpointWater temp
2017-Dec-22 21:01N 45°30' W 073°31'0 3.3
2017-Dec-22 21:00N 45°30' W 073°31'0 0.6
2017-Dec-22 20:17N 45°30' W 073°31'0 0.7
2017-Dec-22 20:00N 45°29' W 073°31'0 0.6
2017-Dec-22 19:30N 45°29' W 073°31'1 3.0
2017-Dec-22 19:01N 45°28' W 073°30'3 5.7
2017-Dec-22 18:30N 45°25' W 073°31'2 4.2
2017-Dec-22 18:00N 45°24' W 073°34'0 0.2
2017-Dec-22 17:30N 45°24' W 073°34'0 0.5
2017-Dec-22 17:00N 45°24' W 073°34'0 0.3
2017-Dec-22 16:30N 45°24' W 073°35'0 0.1
2017-Dec-22 16:00N 45°24' W 073°35'0 0.0
2017-Dec-22 15:31N 45°24' W 073°35'0 0.9
2017-Dec-22 15:00N 45°24' W 073°35'2 3.8
2017-Dec-22 14:30N 45°24' W 073°38'2 4.7
2017-Dec-22 14:00N 45°25' W 073°41'3 5.5
2017-Dec-22 13:30N 45°24' W 073°45'5 9.8
2017-Dec-22 13:00N 45°22' W 073°51'3 6.5
2017-Dec-22 12:30N 45°20' W 073°55'0 0.0
2017-Dec-22 12:00N 45°20' W 073°55'0 0.0
2017-Dec-22 11:30N 45°20' W 073°55'0 0.0
2017-Dec-22 11:00N 45°20' W 073°55'0 0.0
2017-Dec-22 10:30N 45°20' W 073°55'0 0.0
2017-Dec-22 10:00N 45°20' W 073°55'0 0.1
2017-Dec-22 09:30N 45°20' W 073°55'0 0.1
2017-Dec-22 09:00N 45°20' W 073°55'0 0.7
2017-Dec-22 08:30N 45°20' W 073°55'1 1.7
2017-Dec-22 08:01N 45°19' W 073°55'0 0.6
2017-Dec-22 07:30N 45°19' W 073°55'1 1.1
2017-Dec-22 07:00N 45°18' W 073°56'0 0.5
2017-Dec-22 06:30N 45°18' W 073°56'2 4.5
2017-Dec-22 06:00N 45°16' W 073°57'5 9.6
2017-Dec-22 05:29N 45°13' W 074°03'510.2
2017-Dec-22 05:00N 45°14' W 074°10'  
2017-Dec-19 06:00N 45°18' W 083°12'8 7.9 210 / 25 3.0
2017-Dec-19 04:56N 45°23' W 083°21'713.8
2017-Dec-19 04:25N 45°28' W 083°29'613.8
2017-Dec-19 04:00N 45°33' W 083°33'713.8
2017-Dec-19 03:30N 45°39' W 083°38'  

Dump ship's entire track history